createdAt,value
2022-12-03T00:01:11.040Z,99428.86
2022-12-03T00:06:12.943Z,99427.71
2022-12-03T00:11:14.742Z,99430.95
2022-12-03T00:16:16.701Z,99421.69
2022-12-03T00:21:18.642Z,99428.89
2022-12-03T00:26:20.493Z,99433.63
2022-12-03T00:31:24.508Z,99432.41
2022-12-03T00:36:26.477Z,99425.38
2022-12-03T00:41:29.147Z,99418.67
2022-12-03T00:46:31.095Z,99420.38
2022-12-03T00:51:33.061Z,99423.02
2022-12-03T00:56:34.905Z,99422.21
2022-12-03T01:01:36.847Z,99418.53
2022-12-03T01:06:39.040Z,99406.88
2022-12-03T01:11:41.530Z,99411.80
2022-12-03T01:16:44.119Z,99419.73
2022-12-03T01:21:48.961Z,99412.54
2022-12-03T01:26:50.760Z,99401.65
2022-12-03T01:32:11.455Z,99403.10
2022-12-03T01:37:14.038Z,99399.88
2022-12-03T01:42:18.405Z,99401.81
2022-12-03T01:47:27.112Z,99410.12
2022-12-03T01:52:32.856Z,99414.56
2022-12-03T01:57:37.713Z,99419.26
2022-12-03T02:02:39.489Z,99417.83
2022-12-03T02:07:42.464Z,99419.27
2022-12-03T02:12:51.045Z,99414.89
2022-12-03T02:17:53.523Z,99403.94
2022-12-03T02:23:11.399Z,99412.32
2022-12-03T02:28:13.358Z,99399.89
2022-12-03T02:33:15.161Z,99400.98
2022-12-03T02:38:21.096Z,99396.13
2022-12-03T02:43:23.900Z,99392.40
2022-12-03T02:48:29.963Z,99395.11
2022-12-03T02:53:38.312Z,99385.27
2022-12-03T02:58:41.976Z,99395.52
2022-12-03T03:03:45.904Z,99395.92
2022-12-03T03:08:48.793Z,99394.27
2022-12-03T03:13:50.713Z,99400.88
2022-12-03T03:18:52.744Z,99398.48
2022-12-03T03:23:54.600Z,99398.04
2022-12-03T03:28:57.593Z,99398.81
2022-12-03T03:33:59.613Z,99396.41
2022-12-03T03:39:01.936Z,99403.46
2022-12-03T03:44:07.336Z,99409.87
2022-12-03T03:49:10.604Z,99407.32
2022-12-03T03:54:13.028Z,99403.14
2022-12-03T03:59:15.518Z,99402.42
2022-12-03T04:04:20.927Z,99400.35
2022-12-03T04:09:22.801Z,99406.14
2022-12-03T04:14:24.825Z,99405.58
2022-12-03T04:19:26.663Z,99394.67
2022-12-03T04:24:28.555Z,99398.13
2022-12-03T04:29:30.408Z,99394.33
2022-12-03T04:34:51.745Z,99394.27
2022-12-03T04:39:54.354Z,99390.55
2022-12-03T04:44:58.496Z,99384.80
2022-12-03T04:50:00.286Z,99385.36
2022-12-03T04:55:02.140Z,99380.88
2022-12-03T05:00:05.644Z,99378.08
2022-12-03T05:05:07.949Z,99374.06
2022-12-03T05:10:10.946Z,99377.79
2022-12-03T05:15:12.719Z,99375.43
2022-12-03T05:20:33.491Z,99379.86
2022-12-03T05:25:35.360Z,99380.33
2022-12-03T05:30:37.312Z,99379.30
2022-12-03T05:35:39.265Z,99377.79
2022-12-03T05:40:41.279Z,99375.23
2022-12-03T05:45:44.395Z,99379.52
2022-12-03T05:50:47.036Z,99377.51
2022-12-03T05:55:48.911Z,99377.48
2022-12-03T06:00:50.809Z,99376.93
2022-12-03T06:05:52.673Z,99377.03
2022-12-03T06:10:54.482Z,99378.89
2022-12-03T06:15:56.338Z,99385.48
2022-12-03T06:20:58.194Z,99382.48
2022-12-03T06:26:00.024Z,99390.19
2022-12-03T06:31:01.868Z,99393.51
2022-12-03T06:36:03.883Z,99403.64
2022-12-03T06:41:05.848Z,99408.41
2022-12-03T06:46:07.680Z,99411.10
2022-12-03T06:51:09.615Z,99412.20
2022-12-03T06:56:11.466Z,99413.61
2022-12-03T07:01:13.313Z,99408.02
2022-12-03T07:06:15.445Z,99403.03
2022-12-03T07:11:32.520Z,99404.82
2022-12-03T07:16:35.833Z,99410.48
2022-12-03T07:21:38.332Z,99409.77
2022-12-03T07:26:40.327Z,99411.30
2022-12-03T07:31:42.189Z,99415.63
2022-12-03T07:36:44.136Z,99412.78
2022-12-03T07:41:46.008Z,99421.70
2022-12-03T07:46:48.096Z,99417.96
2022-12-03T07:51:54.475Z,99411.27
2022-12-03T07:57:01.194Z,99411.27
2022-12-03T08:02:03.887Z,99408.17
2022-12-03T08:07:06.315Z,99403.08
2022-12-03T08:12:17.082Z,99393.66
2022-12-03T08:17:19.913Z,99394.05
2022-12-03T08:22:22.450Z,99396.81
2022-12-03T08:27:24.293Z,99399.24
2022-12-03T08:32:26.343Z,99397.69
2022-12-03T08:37:29.856Z,99403.80
2022-12-03T08:42:42.832Z,99409.64
2022-12-03T08:47:44.761Z,99403.79
2022-12-03T08:52:46.605Z,99399.86
2022-12-03T08:57:48.526Z,99409.61
2022-12-03T09:02:59.572Z,99415.12
2022-12-03T09:08:01.498Z,99420.35
2022-12-03T09:13:03.444Z,99416.85
2022-12-03T09:18:07.633Z,99416.59
2022-12-03T09:23:09.472Z,99411.14
2022-12-03T09:28:11.292Z,99412.46
2022-12-03T09:33:14.174Z,99411.17
2022-12-03T09:38:15.987Z,99413.13
2022-12-03T09:43:18.645Z,99406.98
2022-12-03T09:48:21.637Z,99409.38
2022-12-03T09:53:26.799Z,99400.17
2022-12-03T09:58:34.501Z,99401.70
2022-12-03T10:03:41.183Z,99389.88
2022-12-03T10:08:43.218Z,99385.79
2022-12-03T10:13:46.250Z,99381.45
2022-12-03T10:18:54.495Z,99379.76
2022-12-03T10:24:25.842Z,99377.19
2022-12-03T10:29:33.955Z,99382.45
2022-12-03T10:34:38.998Z,99388.50
2022-12-03T10:39:56.262Z,99386.23
2022-12-03T10:45:37.075Z,99377.21
2022-12-03T10:50:50.666Z,99369.70
2022-12-03T10:56:04.732Z,99366.99
2022-12-03T11:01:16.073Z,99368.52
2022-12-03T11:06:20.568Z,99370.46
2022-12-03T11:11:28.077Z,99372.27
2022-12-03T11:16:42.155Z,99356.52
2022-12-03T11:22:05.980Z,99345.46
2022-12-03T11:27:10.840Z,99347.38
2022-12-03T11:32:39.478Z,99344.45
2022-12-03T11:37:41.378Z,99347.58
2022-12-03T11:42:45.019Z,99339.37
2022-12-03T11:48:13.853Z,99333.98
2022-12-03T11:53:24.800Z,99334.27
2022-12-03T11:58:29.860Z,99333.30
2022-12-03T12:03:34.398Z,99329.27
2022-12-03T12:08:42.163Z,99334.98
2022-12-03T12:13:43.933Z,99338.32
2022-12-03T12:18:55.020Z,99338.63
2022-12-03T12:23:57.264Z,99336.88
2022-12-03T12:28:59.042Z,99330.34
2022-12-03T12:34:01.668Z,99327.90
2022-12-03T12:39:10.719Z,99331.44
2022-12-03T12:44:15.360Z,99325.60
2022-12-03T12:49:21.598Z,99313.86
2022-12-03T12:54:23.881Z,99311.48
2022-12-03T12:59:26.065Z,99300.64
2022-12-03T13:04:30.721Z,99296.46
2022-12-03T13:09:33.109Z,99300.57
2022-12-03T13:14:37.254Z,99297.44
2022-12-03T13:19:48.311Z,99294.15
2022-12-03T13:25:57.825Z,99300.29
2022-12-03T13:30:54.300Z,99290.98
2022-12-03T13:35:56.628Z,99282.95
2022-12-03T13:41:01.574Z,99284.76
2022-12-03T13:46:03.496Z,99287.27
2022-12-03T13:51:26.315Z,99295.48
2022-12-03T13:56:30.918Z,99301.52
2022-12-03T14:01:33.022Z,99298.36
2022-12-03T14:06:34.879Z,99290.59
2022-12-03T14:11:55.596Z,99293.39
2022-12-03T14:17:00.097Z,99290.00
2022-12-03T14:22:03.094Z,99290.42
2022-12-03T14:27:04.927Z,99286.23
2022-12-03T14:32:06.826Z,99291.44
2022-12-03T14:37:08.718Z,99292.31
2022-12-03T14:42:13.403Z,99286.98
2022-12-03T14:47:18.570Z,99291.70
2022-12-03T14:52:20.526Z,99294.58
2022-12-03T14:57:22.349Z,99302.36
2022-12-03T15:02:24.334Z,99303.42
2022-12-03T15:07:26.388Z,99302.33
2022-12-03T15:12:28.295Z,99299.54
2022-12-03T15:17:32.156Z,99298.00
2022-12-03T15:22:34.267Z,99300.23
2022-12-03T15:27:36.101Z,99304.79
2022-12-03T15:32:37.974Z,99303.04
2022-12-03T15:37:40.564Z,99307.02
2022-12-03T15:42:43.787Z,99307.36
2022-12-03T15:47:46.069Z,99304.31
2022-12-03T15:52:47.999Z,99301.81
2022-12-03T15:57:50.481Z,99302.95
2022-12-03T16:02:53.046Z,99299.02
2022-12-03T16:07:55.347Z,99296.97
2022-12-03T16:12:57.231Z,99299.76
2022-12-03T16:17:59.082Z,99305.83
2022-12-03T16:23:00.870Z,99304.06
2022-12-03T16:28:02.754Z,99303.33
2022-12-03T16:33:04.904Z,99302.71
2022-12-03T16:38:06.747Z,99304.21
2022-12-03T16:43:10.651Z,99298.11
2022-12-03T16:48:12.450Z,99298.26
2022-12-03T16:53:16.407Z,99299.73
2022-12-03T16:58:21.573Z,99302.09
2022-12-03T17:03:24.313Z,99295.02
2022-12-03T17:08:28.553Z,99294.64
2022-12-03T17:13:30.345Z,99289.38
2022-12-03T17:18:32.163Z,99284.06
2022-12-03T17:23:33.925Z,99285.04
2022-12-03T17:28:35.796Z,99280.01
2022-12-03T17:33:37.685Z,99278.23
2022-12-03T17:38:41.040Z,99281.21
2022-12-03T17:43:42.854Z,99287.13
2022-12-03T17:48:44.754Z,99284.73
2022-12-03T17:53:46.823Z,99280.09
2022-12-03T17:58:48.631Z,99278.09
2022-12-03T18:03:50.446Z,99275.23
2022-12-03T18:08:52.393Z,99271.02
2022-12-03T18:13:54.212Z,99265.30
2022-12-03T18:18:57.610Z,99262.23
2022-12-03T18:24:02.389Z,99259.15
2022-12-03T18:29:04.267Z,99258.27
2022-12-03T18:34:06.084Z,99252.75
2022-12-03T18:39:18.332Z,99258.23
2022-12-03T18:44:20.699Z,99256.09
2022-12-03T18:49:22.561Z,99255.75
2022-12-03T18:54:24.394Z,99251.33
2022-12-03T18:59:26.209Z,99248.35
2022-12-03T19:04:28.190Z,99247.89
2022-12-03T19:09:30.056Z,99250.14
2022-12-03T19:14:33.221Z,99257.59
2022-12-03T19:19:36.318Z,99257.92
2022-12-03T19:24:38.171Z,99258.19
2022-12-03T19:29:40.073Z,99266.38
2022-12-03T19:34:41.882Z,99255.71
2022-12-03T19:39:43.726Z,99254.50
2022-12-03T19:44:45.497Z,99251.98
2022-12-03T19:49:47.277Z,99253.54
2022-12-03T19:54:49.233Z,99251.72
2022-12-03T19:59:51.031Z,99253.02
2022-12-03T20:04:52.840Z,99255.25
2022-12-03T20:09:54.866Z,99257.84
2022-12-03T20:14:57.006Z,99259.45
2022-12-03T20:19:58.854Z,99269.66
2022-12-03T20:25:00.745Z,99270.59
2022-12-03T20:30:02.686Z,99272.94
2022-12-03T20:35:04.945Z,99268.77
2022-12-03T20:40:07.632Z,99261.15
2022-12-03T20:45:10.315Z,99264.73
2022-12-03T20:50:12.301Z,99258.13
2022-12-03T20:55:14.210Z,99263.59
2022-12-03T21:00:16.942Z,99264.94
2022-12-03T21:05:18.886Z,99260.48
2022-12-03T21:10:36.052Z,99260.90
2022-12-03T21:15:37.884Z,99259.77
2022-12-03T21:20:44.933Z,99250.73
2022-12-03T21:25:46.767Z,99241.20
2022-12-03T21:30:48.694Z,99240.52
2022-12-03T21:35:50.711Z,99246.55
2022-12-03T21:40:52.946Z,99240.71
2022-12-03T21:45:55.679Z,99236.27
2022-12-03T21:51:17.295Z,99234.89
2022-12-03T21:56:19.591Z,99228.20
2022-12-03T22:01:24.087Z,99223.19
2022-12-03T22:06:26.417Z,99217.54
2022-12-03T22:11:28.263Z,99215.86
2022-12-03T22:16:30.502Z,99225.72
2022-12-03T22:21:32.561Z,99226.45
2022-12-03T22:26:35.326Z,99223.02
2022-12-03T22:31:38.458Z,99221.55
2022-12-03T22:36:40.392Z,99212.52
2022-12-03T22:41:42.242Z,99209.63
2022-12-03T22:46:44.194Z,99207.58
2022-12-03T22:51:47.471Z,99211.00
2022-12-03T22:56:49.367Z,99207.04
2022-12-03T23:01:51.188Z,99202.23
2022-12-03T23:06:53.082Z,99204.04
2022-12-03T23:11:55.202Z,99200.80
2022-12-03T23:16:56.994Z,99197.65
2022-12-03T23:21:58.823Z,99193.42
2022-12-03T23:27:00.688Z,99199.89
2022-12-03T23:32:02.584Z,99203.10
2022-12-03T23:37:04.348Z,99213.48
2022-12-03T23:42:06.165Z,99211.41
2022-12-03T23:47:07.947Z,99206.80
2022-12-03T23:52:09.811Z,99204.66
2022-12-03T23:57:12.775Z,99204.13
